sensor_id;sensor_type;location;lat;lon;timestamp;temperature;humidity
17385;DHT22;8810;48.680;8.894;2023-04-06T00:00:28;-0.30;99.90
17385;DHT22;8810;48.680;8.894;2023-04-06T00:02:54;-0.40;99.90
17385;DHT22;8810;48.680;8.894;2023-04-06T00:05:21;-0.50;99.90
17385;DHT22;8810;48.680;8.894;2023-04-06T00:07:49;-0.50;99.90
17385;DHT22;8810;48.680;8.894;2023-04-06T00:10:16;-0.60;99.90
17385;DHT22;8810;48.680;8.894;2023-04-06T00:12:43;-0.60;99.90
17385;DHT22;8810;48.680;8.894;2023-04-06T00:15:11;-0.70;99.90
17385;DHT22;8810;48.680;8.894;2023-04-06T00:17:39;-0.70;99.90
17385;DHT22;8810;48.680;8.894;2023-04-06T00:20:07;-0.70;99.90
17385;DHT22;8810;48.680;8.894;2023-04-06T00:22:34;-0.70;99.90
17385;DHT22;8810;48.680;8.894;2023-04-06T00:25:01;-0.70;99.90
17385;DHT22;8810;48.680;8.894;2023-04-06T00:27:28;-0.70;99.90
17385;DHT22;8810;48.680;8.894;2023-04-06T00:29:55;-0.70;99.90
17385;DHT22;8810;48.680;8.894;2023-04-06T00:32:22;-0.70;99.90
17385;DHT22;8810;48.680;8.894;2023-04-06T00:34:50;-0.70;99.90
17385;DHT22;8810;48.680;8.894;2023-04-06T00:37:17;-0.70;99.90
17385;DHT22;8810;48.680;8.894;2023-04-06T00:39:44;-0.80;99.90
17385;DHT22;8810;48.680;8.894;2023-04-06T00:42:13;-0.80;99.90
17385;DHT22;8810;48.680;8.894;2023-04-06T00:44:40;-0.80;99.90
17385;DHT22;8810;48.680;8.894;2023-04-06T00:47:07;-0.70;99.90
17385;DHT22;8810;48.680;8.894;2023-04-06T00:49:34;-0.70;99.90
17385;DHT22;8810;48.680;8.894;2023-04-06T00:52:02;-0.80;99.90
17385;DHT22;8810;48.680;8.894;2023-04-06T00:54:30;-0.80;99.90
17385;DHT22;8810;48.680;8.894;2023-04-06T00:56:57;-0.90;99.90
17385;DHT22;8810;48.680;8.894;2023-04-06T00:59:24;-1.00;99.90
17385;DHT22;8810;48.680;8.894;2023-04-06T01:01:51;-1.00;99.90
17385;DHT22;8810;48.680;8.894;2023-04-06T01:04:18;-1.10;99.90
17385;DHT22;8810;48.680;8.894;2023-04-06T01:06:45;-1.10;99.90
17385;DHT22;8810;48.680;8.894;2023-04-06T01:09:13;-1.20;99.90
17385;DHT22;8810;48.680;8.894;2023-04-06T01:11:40;-1.20;99.90
17385;DHT22;8810;48.680;8.894;2023-04-06T01:14:07;-1.30;99.90
17385;DHT22;8810;48.680;8.894;2023-04-06T01:16:35;-1.40;99.90
17385;DHT22;8810;48.680;8.894;2023-04-06T01:19:07;-1.40;99.90
17385;DHT22;8810;48.680;8.894;2023-04-06T01:21:34;-1.50;99.90
17385;DHT22;8810;48.680;8.894;2023-04-06T01:24:03;-1.50;99.90
17385;DHT22;8810;48.680;8.894;2023-04-06T01:26:30;-1.50;99.90
17385;DHT22;8810;48.680;8.894;2023-04-06T01:28:57;-1.50;99.90
17385;DHT22;8810;48.680;8.894;2023-04-06T01:33:52;-1.50;99.90
17385;DHT22;8810;48.680;8.894;2023-04-06T01:36:20;-1.50;99.90
17385;DHT22;8810;48.680;8.894;2023-04-06T01:38:47;-1.40;99.90
17385;DHT22;8810;48.680;8.894;2023-04-06T01:41:15;-1.40;99.90
17385;DHT22;8810;48.680;8.894;2023-04-06T01:43:42;-1.40;99.90
17385;DHT22;8810;48.680;8.894;2023-04-06T01:46:09;-1.30;99.90
17385;DHT22;8810;48.680;8.894;2023-04-06T01:48:36;-1.40;99.90
17385;DHT22;8810;48.680;8.894;2023-04-06T01:51:04;-1.40;99.90
17385;DHT22;8810;48.680;8.894;2023-04-06T01:53:30;-1.40;99.90
17385;DHT22;8810;48.680;8.894;2023-04-06T01:55:57;-1.50;99.90
17385;DHT22;8810;48.680;8.894;2023-04-06T01:58:42;-1.50;99.90
17385;DHT22;8810;48.680;8.894;2023-04-06T02:01:09;-1.40;99.90
17385;DHT22;8810;48.680;8.894;2023-04-06T02:03:36;-1.40;99.90
17385;DHT22;8810;48.680;8.894;2023-04-06T02:06:03;-1.30;99.90
17385;DHT22;8810;48.680;8.894;2023-04-06T02:08:30;-1.30;99.90
17385;DHT22;8810;48.680;8.894;2023-04-06T02:10:57;-1.30;99.90
17385;DHT22;8810;48.680;8.894;2023-04-06T02:13:24;-1.30;99.90
17385;DHT22;8810;48.680;8.894;2023-04-06T02:15:52;-1.40;99.90
17385;DHT22;8810;48.680;8.894;2023-04-06T02:18:19;-1.50;99.90
17385;DHT22;8810;48.680;8.894;2023-04-06T02:20:46;-1.50;99.90
17385;DHT22;8810;48.680;8.894;2023-04-06T02:23:13;-1.60;99.90
17385;DHT22;8810;48.680;8.894;2023-04-06T02:25:40;-1.60;99.90
17385;DHT22;8810;48.680;8.894;2023-04-06T02:28:07;-1.70;99.90
17385;DHT22;8810;48.680;8.894;2023-04-06T02:30:34;-1.80;99.90
17385;DHT22;8810;48.680;8.894;2023-04-06T02:33:03;-1.80;99.90
17385;DHT22;8810;48.680;8.894;2023-04-06T02:35:30;-1.90;99.90
17385;DHT22;8810;48.680;8.894;2023-04-06T02:37:58;-1.90;99.90
17385;DHT22;8810;48.680;8.894;2023-04-06T02:40:25;-1.90;99.90
17385;DHT22;8810;48.680;8.894;2023-04-06T02:42:52;-1.90;99.90
17385;DHT22;8810;48.680;8.894;2023-04-06T02:45:19;-1.80;99.90
17385;DHT22;8810;48.680;8.894;2023-04-06T02:47:46;-1.80;99.90
17385;DHT22;8810;48.680;8.894;2023-04-06T02:50:14;-1.90;99.90
17385;DHT22;8810;48.680;8.894;2023-04-06T02:52:41;-1.90;99.90
17385;DHT22;8810;48.680;8.894;2023-04-06T02:55:08;-1.90;99.90
17385;DHT22;8810;48.680;8.894;2023-04-06T02:57:35;-1.80;99.90
17385;DHT22;8810;48.680;8.894;2023-04-06T03:00:03;-1.80;99.90
17385;DHT22;8810;48.680;8.894;2023-04-06T03:02:30;-1.80;99.90
17385;DHT22;8810;48.680;8.894;2023-04-06T03:04:57;-1.70;99.90
17385;DHT22;8810;48.680;8.894;2023-04-06T03:07:25;-1.70;99.90
17385;DHT22;8810;48.680;8.894;2023-04-06T03:09:52;-1.70;99.90
17385;DHT22;8810;48.680;8.894;2023-04-06T03:12:19;-1.70;99.90
17385;DHT22;8810;48.680;8.894;2023-04-06T03:14:46;-1.60;99.90
17385;DHT22;8810;48.680;8.894;2023-04-06T03:17:13;-1.60;99.90
17385;DHT22;8810;48.680;8.894;2023-04-06T03:19:40;-1.60;99.90
17385;DHT22;8810;48.680;8.894;2023-04-06T03:22:07;-1.60;99.90
17385;DHT22;8810;48.680;8.894;2023-04-06T03:24:36;-1.70;99.90
17385;DHT22;8810;48.680;8.894;2023-04-06T03:27:03;-1.80;99.90
17385;DHT22;8810;48.680;8.894;2023-04-06T03:29:29;-1.80;99.90
17385;DHT22;8810;48.680;8.894;2023-04-06T03:31:56;-1.90;99.90
17385;DHT22;8810;48.680;8.894;2023-04-06T03:34:23;-2.00;99.90
17385;DHT22;8810;48.680;8.894;2023-04-06T03:36:50;-2.10;99.90
17385;DHT22;8810;48.680;8.894;2023-04-06T03:39:17;-2.20;99.90
17385;DHT22;8810;48.680;8.894;2023-04-06T03:41:46;-2.30;99.90
17385;DHT22;8810;48.680;8.894;2023-04-06T03:44:13;-2.30;99.90
17385;DHT22;8810;48.680;8.894;2023-04-06T03:46:40;-2.40;99.90
17385;DHT22;8810;48.680;8.894;2023-04-06T03:49:07;-2.50;99.90
17385;DHT22;8810;48.680;8.894;2023-04-06T03:51:34;-2.50;99.90
17385;DHT22;8810;48.680;8.894;2023-04-06T03:54:01;-2.50;99.90
17385;DHT22;8810;48.680;8.894;2023-04-06T03:56:28;-2.60;99.90
17385;DHT22;8810;48.680;8.894;2023-04-06T03:58:56;-2.60;99.90
17385;DHT22;8810;48.680;8.894;2023-04-06T04:01:23;-2.60;99.90
17385;DHT22;8810;48.680;8.894;2023-04-06T04:03:50;-2.60;99.90
17385;DHT22;8810;48.680;8.894;2023-04-06T04:06:17;-2.60;99.90
17385;DHT22;8810;48.680;8.894;2023-04-06T04:08:45;-2.60;99.90
17385;DHT22;8810;48.680;8.894;2023-04-06T04:11:11;-2.60;99.90
17385;DHT22;8810;48.680;8.894;2023-04-06T04:13:38;-2.50;99.90
17385;DHT22;8810;48.680;8.894;2023-04-06T04:16:07;-2.50;99.90
17385;DHT22;8810;48.680;8.894;2023-04-06T04:18:34;-2.40;99.90
17385;DHT22;8810;48.680;8.894;2023-04-06T04:21:02;-2.40;99.90
17385;DHT22;8810;48.680;8.894;2023-04-06T04:23:29;-2.30;99.90
17385;DHT22;8810;48.680;8.894;2023-04-06T04:25:56;-2.30;99.90
17385;DHT22;8810;48.680;8.894;2023-04-06T04:28:23;-2.30;99.90
17385;DHT22;8810;48.680;8.894;2023-04-06T04:30:50;-2.40;99.90
17385;DHT22;8810;48.680;8.894;2023-04-06T04:33:18;-2.40;99.90
17385;DHT22;8810;48.680;8.894;2023-04-06T04:35:45;-2.50;99.90
17385;DHT22;8810;48.680;8.894;2023-04-06T04:38:12;-2.50;99.90
17385;DHT22;8810;48.680;8.894;2023-04-06T04:40:39;-2.60;99.90
17385;DHT22;8810;48.680;8.894;2023-04-06T04:43:06;-2.60;99.90
17385;DHT22;8810;48.680;8.894;2023-04-06T04:45:33;-2.70;99.90
17385;DHT22;8810;48.680;8.894;2023-04-06T04:48:00;-2.70;99.90
17385;DHT22;8810;48.680;8.894;2023-04-06T04:50:28;-2.70;99.90
17385;DHT22;8810;48.680;8.894;2023-04-06T04:52:55;-2.60;99.90
17385;DHT22;8810;48.680;8.894;2023-04-06T04:55:22;-2.70;99.90
17385;DHT22;8810;48.680;8.894;2023-04-06T04:57:49;-2.70;99.90
17385;DHT22;8810;48.680;8.894;2023-04-06T05:00:16;-2.70;99.90
17385;DHT22;8810;48.680;8.894;2023-04-06T05:02:43;-2.80;99.90
17385;DHT22;8810;48.680;8.894;2023-04-06T05:05:10;-2.70;99.90
17385;DHT22;8810;48.680;8.894;2023-04-06T05:07:38;-2.70;99.90
17385;DHT22;8810;48.680;8.894;2023-04-06T05:10:06;-2.70;99.90
17385;DHT22;8810;48.680;8.894;2023-04-06T05:12:34;-2.70;99.90
17385;DHT22;8810;48.680;8.894;2023-04-06T05:15:01;-2.70;99.90
17385;DHT22;8810;48.680;8.894;2023-04-06T05:17:28;-2.70;99.90
17385;DHT22;8810;48.680;8.894;2023-04-06T05:19:55;-2.60;99.90
17385;DHT22;8810;48.680;8.894;2023-04-06T05:22:22;-2.60;99.90
17385;DHT22;8810;48.680;8.894;2023-04-06T05:24:50;-2.60;99.90
17385;DHT22;8810;48.680;8.894;2023-04-06T05:27:17;-2.60;99.90
17385;DHT22;8810;48.680;8.894;2023-04-06T05:29:44;-2.60;99.90
17385;DHT22;8810;48.680;8.894;2023-04-06T05:32:11;-2.60;99.90
17385;DHT22;8810;48.680;8.894;2023-04-06T05:34:38;-2.60;99.90
17385;DHT22;8810;48.680;8.894;2023-04-06T05:37:05;-2.60;99.90
17385;DHT22;8810;48.680;8.894;2023-04-06T05:39:32;-2.50;99.90
17385;DHT22;8810;48.680;8.894;2023-04-06T05:42:04;-2.40;99.90
17385;DHT22;8810;48.680;8.894;2023-04-06T05:44:32;-2.40;99.90
17385;DHT22;8810;48.680;8.894;2023-04-06T05:46:59;-2.40;99.90
17385;DHT22;8810;48.680;8.894;2023-04-06T05:49:26;-2.40;99.90
17385;DHT22;8810;48.680;8.894;2023-04-06T05:51:53;-2.40;99.90
17385;DHT22;8810;48.680;8.894;2023-04-06T05:54:20;-2.40;99.90
17385;DHT22;8810;48.680;8.894;2023-04-06T05:56:47;-2.30;99.90
17385;DHT22;8810;48.680;8.894;2023-04-06T05:59:15;-2.20;99.90
17385;DHT22;8810;48.680;8.894;2023-04-06T06:01:42;-2.10;99.90
17385;DHT22;8810;48.680;8.894;2023-04-06T06:04:09;-2.00;99.90
17385;DHT22;8810;48.680;8.894;2023-04-06T06:06:36;-1.90;99.90
17385;DHT22;8810;48.680;8.894;2023-04-06T06:09:03;-1.80;99.90
17385;DHT22;8810;48.680;8.894;2023-04-06T06:11:30;-1.70;99.90
17385;DHT22;8810;48.680;8.894;2023-04-06T06:13:58;-1.70;99.90
17385;DHT22;8810;48.680;8.894;2023-04-06T06:16:27;-1.60;99.90
17385;DHT22;8810;48.680;8.894;2023-04-06T06:18:54;-1.50;99.90
17385;DHT22;8810;48.680;8.894;2023-04-06T06:21:21;-1.40;99.90
17385;DHT22;8810;48.680;8.894;2023-04-06T06:23:47;-1.30;99.90
17385;DHT22;8810;48.680;8.894;2023-04-06T06:26:15;-1.20;99.90
17385;DHT22;8810;48.680;8.894;2023-04-06T06:28:43;-1.00;99.90
17385;DHT22;8810;48.680;8.894;2023-04-06T06:31:10;-0.90;99.90
17385;DHT22;8810;48.680;8.894;2023-04-06T06:33:38;-0.70;99.90
17385;DHT22;8810;48.680;8.894;2023-04-06T06:36:05;-0.60;99.90
17385;DHT22;8810;48.680;8.894;2023-04-06T06:38:32;-0.50;99.90
17385;DHT22;8810;48.680;8.894;2023-04-06T06:41:00;-0.30;99.90
17385;DHT22;8810;48.680;8.894;2023-04-06T06:43:27;-0.10;99.90
17385;DHT22;8810;48.680;8.894;2023-04-06T06:45:54;0.20;99.90
17385;DHT22;8810;48.680;8.894;2023-04-06T06:48:20;0.40;99.90
17385;DHT22;8810;48.680;8.894;2023-04-06T06:50:49;0.70;99.90
17385;DHT22;8810;48.680;8.894;2023-04-06T06:53:16;0.90;99.90
17385;DHT22;8810;48.680;8.894;2023-04-06T06:55:43;1.20;99.90
17385;DHT22;8810;48.680;8.894;2023-04-06T06:58:11;1.40;99.90
17385;DHT22;8810;48.680;8.894;2023-04-06T07:00:38;1.60;99.90
17385;DHT22;8810;48.680;8.894;2023-04-06T07:03:05;1.90;99.90
17385;DHT22;8810;48.680;8.894;2023-04-06T07:05:32;2.10;99.90
17385;DHT22;8810;48.680;8.894;2023-04-06T07:08:00;2.40;99.90
17385;DHT22;8810;48.680;8.894;2023-04-06T07:10:30;2.60;99.90
17385;DHT22;8810;48.680;8.894;2023-04-06T07:12:57;3.00;99.90
17385;DHT22;8810;48.680;8.894;2023-04-06T07:15:24;3.30;99.90
17385;DHT22;8810;48.680;8.894;2023-04-06T07:17:51;3.60;99.90
17385;DHT22;8810;48.680;8.894;2023-04-06T07:20:20;3.90;99.90
17385;DHT22;8810;48.680;8.894;2023-04-06T07:22:47;4.30;99.90
17385;DHT22;8810;48.680;8.894;2023-04-06T07:25:15;4.60;99.90
17385;DHT22;8810;48.680;8.894;2023-04-06T07:27:42;4.90;99.90
17385;DHT22;8810;48.680;8.894;2023-04-06T07:30:10;5.20;99.90
17385;DHT22;8810;48.680;8.894;2023-04-06T07:32:37;5.60;99.90
17385;DHT22;8810;48.680;8.894;2023-04-06T07:35:04;6.00;99.90
17385;DHT22;8810;48.680;8.894;2023-04-06T07:37:31;6.30;99.90
17385;DHT22;8810;48.680;8.894;2023-04-06T07:39:58;6.70;99.90
17385;DHT22;8810;48.680;8.894;2023-04-06T07:42:27;7.00;99.90
17385;DHT22;8810;48.680;8.894;2023-04-06T07:44:54;7.30;99.90
17385;DHT22;8810;48.680;8.894;2023-04-06T07:47:21;7.60;99.90
17385;DHT22;8810;48.680;8.894;2023-04-06T07:49:48;7.90;99.90
17385;DHT22;8810;48.680;8.894;2023-04-06T07:52:15;8.20;99.90
17385;DHT22;8810;48.680;8.894;2023-04-06T07:54:42;8.50;99.90
17385;DHT22;8810;48.680;8.894;2023-04-06T07:57:09;8.80;99.90
17385;DHT22;8810;48.680;8.894;2023-04-06T07:59:38;9.10;99.90
17385;DHT22;8810;48.680;8.894;2023-04-06T08:02:05;9.50;99.90
17385;DHT22;8810;48.680;8.894;2023-04-06T08:04:32;9.80;99.90
17385;DHT22;8810;48.680;8.894;2023-04-06T08:06:59;10.10;99.90
17385;DHT22;8810;48.680;8.894;2023-04-06T08:09:26;10.40;99.90
17385;DHT22;8810;48.680;8.894;2023-04-06T08:11:53;10.60;99.40
17385;DHT22;8810;48.680;8.894;2023-04-06T08:14:20;10.90;98.10
17385;DHT22;8810;48.680;8.894;2023-04-06T08:16:48;11.20;96.70
17385;DHT22;8810;48.680;8.894;2023-04-06T08:19:15;11.40;95.40
17385;DHT22;8810;48.680;8.894;2023-04-06T08:21:44;11.60;94.00
17385;DHT22;8810;48.680;8.894;2023-04-06T08:24:11;11.80;93.70
17385;DHT22;8810;48.680;8.894;2023-04-06T08:26:38;12.10;93.60
17385;DHT22;8810;48.680;8.894;2023-04-06T08:29:05;12.20;91.90
17385;DHT22;8810;48.680;8.894;2023-04-06T08:31:33;12.40;91.80
17385;DHT22;8810;48.680;8.894;2023-04-06T08:34:01;12.60;91.00
17385;DHT22;8810;48.680;8.894;2023-04-06T08:36:28;12.80;90.60
17385;DHT22;8810;48.680;8.894;2023-04-06T08:38:56;12.90;89.20
17385;DHT22;8810;48.680;8.894;2023-04-06T08:41:27;13.00;87.00
17385;DHT22;8810;48.680;8.894;2023-04-06T08:43:57;13.10;87.00
17385;DHT22;8810;48.680;8.894;2023-04-06T08:46:24;13.00;84.90
17385;DHT22;8810;48.680;8.894;2023-04-06T08:48:55;13.20;85.00
17385;DHT22;8810;48.680;8.894;2023-04-06T08:51:24;13.20;82.70
17385;DHT22;8810;48.680;8.894;2023-04-06T08:53:55;13.30;82.50
17385;DHT22;8810;48.680;8.894;2023-04-06T08:56:23;13.40;82.00
17385;DHT22;8810;48.680;8.894;2023-04-06T08:58:52;13.50;82.40
17385;DHT22;8810;48.680;8.894;2023-04-06T09:01:21;13.70;80.40
17385;DHT22;8810;48.680;8.894;2023-04-06T09:03:49;13.90;79.50
17385;DHT22;8810;48.680;8.894;2023-04-06T09:06:18;14.00;79.30
17385;DHT22;8810;48.680;8.894;2023-04-06T09:08:46;14.10;78.40
17385;DHT22;8810;48.680;8.894;2023-04-06T09:11:14;14.20;77.50
17385;DHT22;8810;48.680;8.894;2023-04-06T09:13:45;14.40;76.40
17385;DHT22;8810;48.680;8.894;2023-04-06T09:16:12;14.50;75.60
17385;DHT22;8810;48.680;8.894;2023-04-06T09:18:40;14.60;76.00
17385;DHT22;8810;48.680;8.894;2023-04-06T09:21:07;14.70;73.70
17385;DHT22;8810;48.680;8.894;2023-04-06T09:23:35;14.80;74.00
17385;DHT22;8810;48.680;8.894;2023-04-06T09:26:07;14.90;74.00
17385;DHT22;8810;48.680;8.894;2023-04-06T09:28:45;14.90;74.30
17385;DHT22;8810;48.680;8.894;2023-04-06T09:31:12;15.00;73.00
17385;DHT22;8810;48.680;8.894;2023-04-06T09:33:41;15.00;73.90
17385;DHT22;8810;48.680;8.894;2023-04-06T09:36:08;15.10;73.80
17385;DHT22;8810;48.680;8.894;2023-04-06T09:38:37;15.30;72.20
17385;DHT22;8810;48.680;8.894;2023-04-06T09:41:04;15.40;72.30
17385;DHT22;8810;48.680;8.894;2023-04-06T09:43:33;15.50;71.60
17385;DHT22;8810;48.680;8.894;2023-04-06T09:46:01;15.50;70.30
17385;DHT22;8810;48.680;8.894;2023-04-06T09:48:31;15.40;67.10
17385;DHT22;8810;48.680;8.894;2023-04-06T09:51:03;15.30;67.70
17385;DHT22;8810;48.680;8.894;2023-04-06T09:53:31;15.00;66.60
17385;DHT22;8810;48.680;8.894;2023-04-06T09:56:03;15.10;68.40
17385;DHT22;8810;48.680;8.894;2023-04-06T09:58:37;15.20;69.50
17385;DHT22;8810;48.680;8.894;2023-04-06T10:01:10;15.40;68.10
17385;DHT22;8810;48.680;8.894;2023-04-06T10:03:45;15.30;66.50
17385;DHT22;8810;48.680;8.894;2023-04-06T10:06:15;15.50;67.90
17385;DHT22;8810;48.680;8.894;2023-04-06T10:08:47;15.90;69.30
17385;DHT22;8810;48.680;8.894;2023-04-06T10:11:16;16.30;68.90
17385;DHT22;8810;48.680;8.894;2023-04-06T10:13:45;16.70;66.90
17385;DHT22;8810;48.680;8.894;2023-04-06T10:16:14;17.00;67.00
17385;DHT22;8810;48.680;8.894;2023-04-06T10:18:44;17.20;66.00
17385;DHT22;8810;48.680;8.894;2023-04-06T10:21:15;17.00;66.40
17385;DHT22;8810;48.680;8.894;2023-04-06T10:23:48;17.00;65.20
17385;DHT22;8810;48.680;8.894;2023-04-06T10:26:16;17.10;65.00
17385;DHT22;8810;48.680;8.894;2023-04-06T10:28:46;16.90;64.60
17385;DHT22;8810;48.680;8.894;2023-04-06T10:31:14;17.00;65.40
17385;DHT22;8810;48.680;8.894;2023-04-06T10:33:41;17.10;64.30
17385;DHT22;8810;48.680;8.894;2023-04-06T10:36:12;17.10;63.30
17385;DHT22;8810;48.680;8.894;2023-04-06T10:38:40;17.00;64.10
17385;DHT22;8810;48.680;8.894;2023-04-06T10:41:08;17.10;65.70
17385;DHT22;8810;48.680;8.894;2023-04-06T10:43:36;17.30;65.80
17385;DHT22;8810;48.680;8.894;2023-04-06T10:46:06;17.70;66.20
17385;DHT22;8810;48.680;8.894;2023-04-06T10:48:37;17.90;62.80
17385;DHT22;8810;48.680;8.894;2023-04-06T10:51:08;17.90;61.90
17385;DHT22;8810;48.680;8.894;2023-04-06T10:53:36;17.70;62.00
17385;DHT22;8810;48.680;8.894;2023-04-06T10:56:04;17.60;63.30
17385;DHT22;8810;48.680;8.894;2023-04-06T10:58:31;17.50;62.20
17385;DHT22;8810;48.680;8.894;2023-04-06T11:00:58;17.20;62.90
17385;DHT22;8810;48.680;8.894;2023-04-06T11:03:27;17.00;61.90
17385;DHT22;8810;48.680;8.894;2023-04-06T11:05:54;17.10;64.40
17385;DHT22;8810;48.680;8.894;2023-04-06T11:08:26;17.20;63.70
17385;DHT22;8810;48.680;8.894;2023-04-06T11:11:04;17.50;63.30
17385;DHT22;8810;48.680;8.894;2023-04-06T11:13:37;17.70;64.50
17385;DHT22;8810;48.680;8.894;2023-04-06T11:16:04;17.10;61.00
17385;DHT22;8810;48.680;8.894;2023-04-06T11:18:33;16.80;61.80
17385;DHT22;8810;48.680;8.894;2023-04-06T11:21:00;16.70;62.40
17385;DHT22;8810;48.680;8.894;2023-04-06T11:23:27;16.90;64.00
17385;DHT22;8810;48.680;8.894;2023-04-06T11:25:54;17.10;64.70
17385;DHT22;8810;48.680;8.894;2023-04-06T11:28:21;17.10;60.50
17385;DHT22;8810;48.680;8.894;2023-04-06T11:30:48;17.00;61.30
17385;DHT22;8810;48.680;8.894;2023-04-06T11:33:20;16.90;61.00
17385;DHT22;8810;48.680;8.894;2023-04-06T11:35:49;17.10;61.50
17385;DHT22;8810;48.680;8.894;2023-04-06T11:38:18;17.30;63.30
17385;DHT22;8810;48.680;8.894;2023-04-06T11:40:46;17.80;62.00
17385;DHT22;8810;48.680;8.894;2023-04-06T11:43:13;17.90;60.20
17385;DHT22;8810;48.680;8.894;2023-04-06T11:45:41;17.70;58.60
17385;DHT22;8810;48.680;8.894;2023-04-06T11:48:17;17.30;58.60
17385;DHT22;8810;48.680;8.894;2023-04-06T11:50:46;17.00;59.20
17385;DHT22;8810;48.680;8.894;2023-04-06T11:53:15;16.80;60.30
17385;DHT22;8810;48.680;8.894;2023-04-06T11:55:42;16.70;60.30
17385;DHT22;8810;48.680;8.894;2023-04-06T11:58:12;16.90;61.50
17385;DHT22;8810;48.680;8.894;2023-04-06T12:00:39;17.10;61.40
17385;DHT22;8810;48.680;8.894;2023-04-06T12:03:10;17.30;59.40
17385;DHT22;8810;48.680;8.894;2023-04-06T12:05:37;17.40;59.50
17385;DHT22;8810;48.680;8.894;2023-04-06T12:08:04;17.50;59.70
17385;DHT22;8810;48.680;8.894;2023-04-06T12:10:32;17.80;60.00
17385;DHT22;8810;48.680;8.894;2023-04-06T12:12:59;17.70;58.50
17385;DHT22;8810;48.680;8.894;2023-04-06T12:15:26;17.90;58.50
17385;DHT22;8810;48.680;8.894;2023-04-06T12:17:53;18.00;58.90
17385;DHT22;8810;48.680;8.894;2023-04-06T12:20:20;18.20;58.70
17385;DHT22;8810;48.680;8.894;2023-04-06T12:22:47;18.40;59.80
17385;DHT22;8810;48.680;8.894;2023-04-06T12:25:14;18.70;58.80
17385;DHT22;8810;48.680;8.894;2023-04-06T12:27:43;19.00;59.40
17385;DHT22;8810;48.680;8.894;2023-04-06T12:30:10;19.30;58.90
17385;DHT22;8810;48.680;8.894;2023-04-06T12:32:37;19.70;59.00
17385;DHT22;8810;48.680;8.894;2023-04-06T12:35:04;19.80;57.20
17385;DHT22;8810;48.680;8.894;2023-04-06T12:37:31;19.80;56.90
17385;DHT22;8810;48.680;8.894;2023-04-06T12:39:58;20.00;56.70
17385;DHT22;8810;48.680;8.894;2023-04-06T12:42:26;19.80;56.70
17385;DHT22;8810;48.680;8.894;2023-04-06T12:44:54;19.80;55.70
17385;DHT22;8810;48.680;8.894;2023-04-06T12:47:21;19.40;56.80
17385;DHT22;8810;48.680;8.894;2023-04-06T12:49:48;19.60;57.90
17385;DHT22;8810;48.680;8.894;2023-04-06T12:52:15;19.70;58.30
17385;DHT22;8810;48.680;8.894;2023-04-06T12:54:42;19.80;57.50
17385;DHT22;8810;48.680;8.894;2023-04-06T12:57:10;19.80;57.40
17385;DHT22;8810;48.680;8.894;2023-04-06T12:59:37;19.70;57.30
17385;DHT22;8810;48.680;8.894;2023-04-06T13:02:05;19.90;55.60
17385;DHT22;8810;48.680;8.894;2023-04-06T13:04:32;19.90;55.90
17385;DHT22;8810;48.680;8.894;2023-04-06T13:06:59;19.80;56.30
17385;DHT22;8810;48.680;8.894;2023-04-06T13:09:26;19.80;56.10
17385;DHT22;8810;48.680;8.894;2023-04-06T13:11:53;19.30;55.40
17385;DHT22;8810;48.680;8.894;2023-04-06T13:14:21;18.70;55.10
17385;DHT22;8810;48.680;8.894;2023-04-06T13:16:49;18.40;57.10
17385;DHT22;8810;48.680;8.894;2023-04-06T13:19:18;18.10;56.60
17385;DHT22;8810;48.680;8.894;2023-04-06T13:21:45;17.90;57.00
17385;DHT22;8810;48.680;8.894;2023-04-06T13:24:12;17.70;57.40
17385;DHT22;8810;48.680;8.894;2023-04-06T13:26:39;17.60;58.80
17385;DHT22;8810;48.680;8.894;2023-04-06T13:29:06;17.70;58.70
17385;DHT22;8810;48.680;8.894;2023-04-06T13:31:33;17.60;58.30
17385;DHT22;8810;48.680;8.894;2023-04-06T13:34:00;17.40;58.60
17385;DHT22;8810;48.680;8.894;2023-04-06T13:36:28;17.20;59.00
17385;DHT22;8810;48.680;8.894;2023-04-06T13:38:57;17.20;59.70
17385;DHT22;8810;48.680;8.894;2023-04-06T13:41:25;17.40;59.60
17385;DHT22;8810;48.680;8.894;2023-04-06T13:43:53;17.60;59.50
17385;DHT22;8810;48.680;8.894;2023-04-06T13:46:20;17.70;58.70
17385;DHT22;8810;48.680;8.894;2023-04-06T13:48:49;17.80;59.20
17385;DHT22;8810;48.680;8.894;2023-04-06T13:51:16;17.60;58.50
17385;DHT22;8810;48.680;8.894;2023-04-06T13:53:44;17.70;60.30
17385;DHT22;8810;48.680;8.894;2023-04-06T13:56:11;17.90;59.20
17385;DHT22;8810;48.680;8.894;2023-04-06T13:58:38;18.00;59.00
17385;DHT22;8810;48.680;8.894;2023-04-06T14:01:06;18.00;60.20
17385;DHT22;8810;48.680;8.894;2023-04-06T14:03:35;18.20;60.00
17385;DHT22;8810;48.680;8.894;2023-04-06T14:06:09;18.20;58.50
17385;DHT22;8810;48.680;8.894;2023-04-06T14:08:36;18.00;58.60
17385;DHT22;8810;48.680;8.894;2023-04-06T14:11:06;17.70;59.90
17385;DHT22;8810;48.680;8.894;2023-04-06T14:13:33;17.60;61.10
17385;DHT22;8810;48.680;8.894;2023-04-06T14:16:00;17.10;59.40
17385;DHT22;8810;48.680;8.894;2023-04-06T14:18:27;16.70;59.90
17385;DHT22;8810;48.680;8.894;2023-04-06T14:20:56;16.20;60.70
17385;DHT22;8810;48.680;8.894;2023-04-06T14:23:24;15.90;61.70
17385;DHT22;8810;48.680;8.894;2023-04-06T14:25:52;15.70;61.40
17385;DHT22;8810;48.680;8.894;2023-04-06T14:28:28;15.60;62.40
17385;DHT22;8810;48.680;8.894;2023-04-06T14:30:55;15.50;62.80
17385;DHT22;8810;48.680;8.894;2023-04-06T14:33:22;15.50;62.70
17385;DHT22;8810;48.680;8.894;2023-04-06T14:35:48;15.50;62.80
17385;DHT22;8810;48.680;8.894;2023-04-06T14:38:15;15.50;62.90
17385;DHT22;8810;48.680;8.894;2023-04-06T14:40:42;15.50;64.30
17385;DHT22;8810;48.680;8.894;2023-04-06T14:43:09;15.50;63.90
17385;DHT22;8810;48.680;8.894;2023-04-06T14:45:37;15.60;63.80
17385;DHT22;8810;48.680;8.894;2023-04-06T14:48:04;15.50;63.60
17385;DHT22;8810;48.680;8.894;2023-04-06T14:50:32;15.50;63.30
17385;DHT22;8810;48.680;8.894;2023-04-06T14:52:59;15.50;64.00
17385;DHT22;8810;48.680;8.894;2023-04-06T14:55:27;15.40;64.50
17385;DHT22;8810;48.680;8.894;2023-04-06T14:57:53;15.30;64.40
17385;DHT22;8810;48.680;8.894;2023-04-06T15:00:20;15.10;64.30
17385;DHT22;8810;48.680;8.894;2023-04-06T15:02:49;15.00;65.00
17385;DHT22;8810;48.680;8.894;2023-04-06T15:05:16;15.00;66.10
17385;DHT22;8810;48.680;8.894;2023-04-06T15:07:42;14.90;65.90
17385;DHT22;8810;48.680;8.894;2023-04-06T15:10:10;14.80;65.20
17385;DHT22;8810;48.680;8.894;2023-04-06T15:12:37;14.70;66.70
17385;DHT22;8810;48.680;8.894;2023-04-06T15:15:05;14.70;66.70
17385;DHT22;8810;48.680;8.894;2023-04-06T15:17:32;14.60;66.40
17385;DHT22;8810;48.680;8.894;2023-04-06T15:20:00;14.60;66.70
17385;DHT22;8810;48.680;8.894;2023-04-06T15:22:27;14.60;66.60
17385;DHT22;8810;48.680;8.894;2023-04-06T15:24:53;14.50;66.20
17385;DHT22;8810;48.680;8.894;2023-04-06T15:27:20;14.50;66.80
17385;DHT22;8810;48.680;8.894;2023-04-06T15:29:47;14.50;67.70
17385;DHT22;8810;48.680;8.894;2023-04-06T15:32:14;14.30;66.70
17385;DHT22;8810;48.680;8.894;2023-04-06T15:34:41;14.20;68.90
17385;DHT22;8810;48.680;8.894;2023-04-06T15:37:09;14.10;68.80
17385;DHT22;8810;48.680;8.894;2023-04-06T15:39:36;14.00;69.60
17385;DHT22;8810;48.680;8.894;2023-04-06T15:42:03;14.00;70.00
17385;DHT22;8810;48.680;8.894;2023-04-06T15:44:30;13.90;70.40
17385;DHT22;8810;48.680;8.894;2023-04-06T15:46:57;13.90;70.90
17385;DHT22;8810;48.680;8.894;2023-04-06T15:49:24;13.90;71.00
17385;DHT22;8810;48.680;8.894;2023-04-06T15:51:51;13.90;71.60